Time;durP1;ratioP1;P1;durP2;ratioP2;P2;SDS_P1;SDS_P2;PMS_P1;PMS_P2;Temp;Humidity;BMP_temperature;BMP_pressure;BME280_temperature;BME280_humidity;BME280_pressure;Samples;Min_cycle;Max_cycle;Signal;HPM_P1;HPM_P2
2022/05/11 00:08:48;;;;;;;5.85;3.05;;;;;;;24.89;37.79;100582.56;20431218;28;99262;-77
2022/05/11 00:18:49;;;;;;;5.45;3.10;;;;;;;24.87;37.75;100574.75;20421149;28;98052;-77
2022/05/11 00:28:49;;;;;;;4.40;2.97;;;;;;;24.86;37.86;100573.06;20420432;28;97771;-76
2022/05/11 00:38:50;;;;;;;5.50;2.90;;;;;;;24.87;38.22;100579.22;20425834;28;99287;-76
2022/05/11 00:59:19;;;;;;;6.15;3.10;;;;;;;24.79;38.10;100574.59;20422167;28;100400;-77
2022/05/11 01:09:20;;;;;;;5.72;3.15;;;;;;;24.81;38.19;100566.53;20427491;28;96959;-77
2022/05/11 01:19:38;;;;;;;5.97;3.10;;;;;;;24.77;38.10;100572.09;20443549;28;98301;-77
2022/05/11 01:29:38;;;;;;;6.50;3.13;;;;;;;24.76;38.20;100580.19;20430106;28;101066;-76
2022/05/11 01:39:39;;;;;;;5.60;3.35;;;;;;;24.75;38.36;100567.91;20435989;28;97099;-77
2022/05/11 01:49:39;;;;;;;4.32;3.22;;;;;;;24.73;38.44;100575.16;20432068;28;97091;-75
2022/05/11 01:59:40;;;;;;;6.78;3.55;;;;;;;24.72;38.50;100570.84;20441199;28;98395;-76
2022/05/11 02:09:41;;;;;;;6.07;3.10;;;;;;;24.70;38.55;100575.44;20424991;28;97135;-76
2022/05/11 02:19:42;;;;;;;6.37;3.20;;;;;;;24.67;38.28;100576.56;20435856;28;98331;-77
2022/05/11 02:29:42;;;;;;;4.40;2.77;;;;;;;24.64;38.58;100568.84;20437805;28;100025;-77
2022/05/11 02:39:43;;;;;;;8.77;3.20;;;;;;;24.64;38.30;100570.66;20434840;28;99026;-77
2022/05/11 02:49:44;;;;;;;4.80;3.35;;;;;;;24.61;38.63;100572.59;20432249;28;98011;-77
2022/05/11 02:59:48;;;;;;;7.85;3.20;;;;;;;24.59;38.73;100571.06;20417470;28;99236;-77
2022/05/11 03:09:49;;;;;;;10.88;3.20;;;;;;;24.61;38.72;100572.59;20434117;28;99590;-77
2022/05/11 03:19:50;;;;;;;5.00;3.10;;;;;;;24.60;38.84;100570.94;20443260;28;97937;-77
2022/05/11 03:29:51;;;;;;;3.58;2.70;;;;;;;24.59;38.76;100579.03;20442605;28;98110;-76
2022/05/11 03:39:51;;;;;;;3.93;3.00;;;;;;;24.57;38.79;100587.09;20429483;28;98415;-77
2022/05/11 03:49:53;;;;;;;8.63;2.88;;;;;;;24.56;38.63;100596.00;20416634;28;102988;-76
2022/05/11 03:59:53;;;;;;;4.37;2.90;;;;;;;24.55;38.99;100604.94;20426661;28;97246;-79
2022/05/11 04:09:54;;;;;;;9.60;3.42;;;;;;;24.54;38.99;100603.25;20436651;28;98091;-77
2022/05/11 04:19:55;;;;;;;5.40;2.75;;;;;;;24.52;38.87;100607.00;20408264;28;101815;-76
2022/05/11 04:29:56;;;;;;;19.07;4.93;;;;;;;24.49;39.06;100617.88;20430810;28;99411;-79
2022/05/11 04:39:57;;;;;;;16.00;4.88;;;;;;;24.46;38.58;100613.66;20422865;28;98558;-75
2022/05/11 04:49:57;;;;;;;16.10;4.50;;;;;;;24.36;38.56;100621.56;20439857;28;98396;-80
2022/05/11 04:59:58;;;;;;;11.20;5.43;;;;;;;23.20;37.23;100631.31;20445412;28;98815;-76
2022/05/11 05:09:58;;;;;;;9.68;5.55;;;;;;;22.65;37.59;100640.06;20422853;28;97758;-76
2022/05/11 05:19:59;;;;;;;13.88;6.15;;;;;;;22.42;38.11;100647.16;20434366;28;97549;-79
2022/05/11 05:40:19;;;;;;;17.35;5.03;;;;;;;23.39;38.52;100638.56;20450283;28;99596;-79
2022/05/11 05:50:20;;;;;;;9.63;4.10;;;;;;;23.63;38.32;100632.19;20447846;28;97540;-78
2022/05/11 06:00:20;;;;;;;9.63;4.78;;;;;;;23.76;37.82;100629.34;20442200;28;99399;-79
2022/05/11 06:10:22;;;;;;;10.07;6.00;;;;;;;23.85;37.93;100644.41;20449342;28;97690;-78
2022/05/11 06:20:23;;;;;;;12.93;7.40;;;;;;;23.89;38.25;100635.28;20459742;28;98475;-79
2022/05/11 06:30:25;;;;;;;15.50;8.27;;;;;;;23.93;38.48;100641.19;20457410;28;97039;-79
2022/05/11 06:40:26;;;;;;;13.67;8.97;;;;;;;23.95;38.61;100637.44;20458698;28;97454;-80
2022/05/11 06:50:28;;;;;;;12.93;8.80;;;;;;;23.94;39.21;100638.41;20462939;28;98050;-80
2022/05/11 07:00:30;;;;;;;13.73;8.80;;;;;;;23.94;38.89;100638.41;20473149;28;100450;-81
2022/05/11 07:10:31;;;;;;;13.23;9.20;;;;;;;23.96;38.89;100633.81;20472880;28;97014;-83
2022/05/11 07:20:35;;;;;;;12.27;8.45;;;;;;;24.16;38.94;100622.47;20459490;28;97026;-82
2022/05/11 07:30:38;;;;;;;12.32;7.45;;;;;;;24.11;39.00;100614.97;20462314;28;97890;-81
2022/05/11 07:40:40;;;;;;;12.23;7.25;;;;;;;24.14;39.28;100615.53;20438941;28;99839;-79
2022/05/11 07:50:41;;;;;;;13.05;6.35;;;;;;;24.17;39.31;100618.88;20445223;28;96986;-79
2022/05/11 08:00:42;;;;;;;12.83;6.50;;;;;;;24.15;39.14;100616.34;20454560;28;97487;-79
2022/05/11 08:10:46;;;;;;;13.35;6.10;;;;;;;24.18;39.17;100607.31;20450267;28;98053;-78
2022/05/11 08:20:47;;;;;;;6.50;4.78;;;;;;;24.19;39.21;100603.69;20469147;28;97064;-79
2022/05/11 08:41:32;;;;;;;7.43;4.93;;;;;;;24.18;39.51;100594.09;20482049;28;97006;-79
2022/05/11 08:52:04;;;;;;;8.52;4.65;;;;;;;24.19;39.32;100601.06;20481186;28;97434;-79
2022/05/11 09:02:24;;;;;;;7.80;4.90;;;;;;;24.20;39.60;100592.97;20467786;28;96998;-79
2022/05/11 09:12:26;;;;;;;6.95;5.25;;;;;;;24.22;39.39;100598.97;20473941;28;97364;-79
2022/05/11 09:22:28;;;;;;;5.22;4.40;;;;;;;24.27;39.46;100588.00;20465336;28;100771;-79
2022/05/11 09:32:37;;;;;;;5.53;4.60;;;;;;;24.27;39.66;100593.28;20469806;28;97004;-78
2022/05/11 09:42:49;;;;;;;5.57;4.30;;;;;;;24.28;39.69;100587.84;20469287;28;97823;-79
2022/05/11 09:52:51;;;;;;;6.28;4.90;;;;;;;24.30;39.72;100588.56;20462123;28;97827;-79
2022/05/11 10:02:57;;;;;;;6.55;5.13;;;;;;;24.35;39.50;100580.22;20467386;28;96978;-79
2022/05/11 10:13:24;;;;;;;7.00;4.97;;;;;;;24.38;39.25;100576.47;20467006;28;97042;-79
2022/05/11 10:23:35;;;;;;;5.13;4.50;;;;;;;24.43;39.69;100580.38;20465525;28;96980;-79
2022/05/11 10:34:10;;;;;;;4.87;3.77;;;;;;;24.50;39.84;100574.53;20468348;28;96921;-79
2022/05/11 10:44:23;;;;;;;5.13;4.18;;;;;;;24.57;39.91;100570.38;20463178;28;97449;-79
2022/05/11 10:54:57;;;;;;;5.70;4.25;;;;;;;24.63;40.12;100564.53;20471079;28;97715;-78
2022/05/11 11:05:12;;;;;;;6.90;4.38;;;;;;;24.72;40.06;100562.91;20470864;28;97577;-78
2022/05/11 11:15:17;;;;;;;6.88;4.68;;;;;;;24.77;39.86;100547.44;20464585;28;97929;-78
2022/05/11 11:25:21;;;;;;;6.65;4.53;;;;;;;24.80;40.15;100547.16;20457062;28;98062;-78
2022/05/11 11:35:22;;;;;;;5.32;4.05;;;;;;;24.88;40.16;100530.56;20445480;28;98439;-79
2022/05/11 11:45:26;;;;;;;7.90;4.23;;;;;;;24.95;40.37;100510.50;20452840;28;98253;-82
2022/05/11 11:55:30;;;;;;;5.88;3.88;;;;;;;25.07;38.27;100512.03;20477988;28;97290;-81
2022/05/11 12:05:47;;;;;;;5.55;4.00;;;;;;;25.17;38.27;100490.81;20452792;28;97555;-80
2022/05/11 12:15:58;;;;;;;9.60;4.03;;;;;;;25.25;37.35;100485.63;20455393;28;98575;-80
2022/05/11 12:26:06;;;;;;;5.63;3.53;;;;;;;25.32;37.46;100485.06;20448935;28;100548;-80
2022/05/11 12:36:08;;;;;;;7.28;3.30;;;;;;;25.35;37.81;100479.44;20443946;28;99002;-78
2022/05/11 12:46:12;;;;;;;9.65;3.50;;;;;;;25.44;36.40;100459.22;20428847;28;97143;-77
2022/05/11 12:56:25;;;;;;;6.05;3.25;;;;;;;25.48;36.07;100452.66;20425928;28;97309;-77
2022/05/11 13:06:38;;;;;;;7.85;3.10;;;;;;;25.52;37.38;100454.88;20436047;28;97446;-79
2022/05/11 13:16:53;;;;;;;4.18;3.00;;;;;;;25.62;37.28;100435.41;20443627;28;100326;-78
2022/05/11 13:26:55;;;;;;;17.73;4.32;;;;;;;25.66;35.75;100418.22;20429745;28;97162;-73
2022/05/11 13:36:57;;;;;;;9.60;3.60;;;;;;;25.71;35.53;100403.56;20424091;28;98010;-76
2022/05/11 13:57:38;;;;;;;10.13;3.70;;;;;;;25.84;35.91;100391.75;20469483;28;97436;-72
2022/05/11 14:07:39;;;;;;;5.78;3.22;;;;;;;25.90;35.44;100385.84;20471346;28;97318;-73
2022/05/11 14:17:46;;;;;;;7.20;3.42;;;;;;;25.95;35.41;100374.78;20462593;28;97190;-73
2022/05/11 14:27:47;;;;;;;5.35;3.53;;;;;;;25.98;35.81;100370.00;20449163;28;97991;-73
2022/05/11 14:37:49;;;;;;;5.60;2.90;;;;;;;26.03;35.89;100359.75;20445617;28;97438;-75
2022/05/11 14:47:57;;;;;;;4.25;2.88;;;;;;;26.01;35.77;100360.91;20441245;28;97172;-73
2022/05/11 15:08:17;;;;;;;3.83;2.70;;;;;;;26.05;36.18;100351.69;20459328;28;97286;-74
2022/05/11 15:18:19;;;;;;;4.00;3.08;;;;;;;26.23;35.42;100343.72;20465653;28;97517;-74
2022/05/11 15:28:19;;;;;;;3.72;2.85;;;;;;;26.34;35.63;100339.97;20460488;28;97108;-74
2022/05/11 15:38:20;;;;;;;2.92;2.60;;;;;;;26.63;34.88;100336.22;20452859;28;97680;-73
2022/05/11 15:48:21;;;;;;;6.68;2.75;;;;;;;26.94;35.24;100330.44;20440579;28;97297;-74
2022/05/11 15:58:27;;;;;;;9.15;3.10;;;;;;;26.86;36.05;100323.25;20403743;28;101374;-73
2022/05/11 16:08:29;;;;;;;15.82;3.10;;;;;;;26.81;36.38;100314.94;20407487;28;99188;-76
2022/05/11 16:28:49;;;;;;;7.30;2.70;;;;;;;26.58;34.23;100312.78;20438360;28;98304;-75
2022/05/11 16:38:50;;;;;;;7.70;3.30;;;;;;;26.55;34.06;100315.75;20427035;28;97627;-78
2022/05/11 16:48:50;;;;;;;7.10;3.10;;;;;;;26.53;32.52;100317.72;20434906;28;97206;-78
2022/05/11 16:58:51;;;;;;;3.20;2.60;;;;;;;26.45;32.68;100313.22;20461659;28;97350;-78
2022/05/11 17:08:52;;;;;;;6.47;2.73;;;;;;;26.41;32.71;100322.44;20429552;28;97132;-76
2022/05/11 17:18:52;;;;;;;6.10;2.88;;;;;;;26.26;31.30;100321.38;20459941;28;97497;-75
2022/05/11 17:28:53;;;;;;;5.40;2.72;;;;;;;26.26;29.98;100310.75;20446290;28;97421;-76
2022/05/11 17:38:54;;;;;;;5.30;2.77;;;;;;;26.20;29.73;100320.16;20450790;28;98140;-76
2022/05/11 17:48:55;;;;;;;4.45;2.58;;;;;;;26.13;30.83;100319.91;20449859;28;97352;-75
2022/05/11 17:58:56;;;;;;;11.20;3.03;;;;;;;26.09;31.07;100323.88;20439409;28;98877;-77
2022/05/11 18:08:56;;;;;;;4.23;3.07;;;;;;;25.93;31.47;100326.34;20441610;28;97322;-78
2022/05/11 18:18:57;;;;;;;6.57;3.30;;;;;;;25.91;32.05;100337.09;20430983;28;101124;-78
2022/05/11 18:28:58;;;;;;;9.77;3.73;;;;;;;25.87;32.16;100341.06;20450598;28;102616;-77
2022/05/11 18:38:58;;;;;;;5.85;3.40;;;;;;;25.86;31.91;100340.22;20467253;28;102104;-79
2022/05/11 18:49:01;;;;;;;4.80;3.40;;;;;;;25.82;32.75;100360.06;20483740;28;97102;-79
2022/05/11 18:59:02;;;;;;;6.50;3.50;;;;;;;25.83;32.50;100372.34;20479167;28;97431;-80
2022/05/11 19:09:03;;;;;;;8.68;3.55;;;;;;;25.84;34.49;100373.19;20456139;28;99121;-77
2022/05/11 19:19:04;;;;;;;4.77;3.30;;;;;;;25.81;35.10;100378.78;20443879;28;99481;-78
2022/05/11 19:29:05;;;;;;;6.30;3.38;;;;;;;25.84;34.69;100384.63;20463156;28;97818;-77
2022/05/11 19:39:10;;;;;;;5.53;3.50;;;;;;;25.82;35.26;100386.59;20454101;28;96935;-79
2022/05/11 19:49:11;;;;;;;6.53;4.00;;;;;;;25.76;35.93;100389.84;20465226;28;97436;-79
2022/05/11 19:59:15;;;;;;;6.13;3.67;;;;;;;25.70;36.24;100387.78;20457455;28;97599;-78
2022/05/11 20:09:17;;;;;;;4.43;3.33;;;;;;;25.62;36.54;100387.69;20479636;28;96976;-79
2022/05/11 20:19:18;;;;;;;4.93;3.50;;;;;;;25.57;36.92;100394.28;20452717;28;97223;-79
2022/05/11 20:29:20;;;;;;;5.27;3.30;;;;;;;25.57;37.13;100399.59;20444305;28;97450;-79
2022/05/11 20:39:21;;;;;;;6.55;3.53;;;;;;;25.59;37.02;100398.63;20468106;28;98176;-79
2022/05/11 20:49:22;;;;;;;5.22;3.30;;;;;;;25.57;37.65;100388.97;20454233;28;99232;-79
2022/05/11 20:59:24;;;;;;;6.50;3.63;;;;;;;25.51;37.75;100394.03;20441504;28;97101;-79
2022/05/11 21:09:25;;;;;;;4.28;3.40;;;;;;;25.50;37.79;100395.84;20437750;28;99026;-79
2022/05/11 21:19:26;;;;;;;4.93;3.13;;;;;;;25.45;38.12;100406.06;20439645;28;97229;-79
2022/05/11 21:29:26;;;;;;;4.68;3.67;;;;;;;25.48;38.47;100413.72;20464252;28;97025;-80
2022/05/11 21:39:27;;;;;;;4.50;3.25;;;;;;;25.50;38.08;100411.75;20452967;28;98253;-79
2022/05/11 21:49:28;;;;;;;5.30;3.28;;;;;;;25.49;38.22;100409.25;20462890;28;98520;-80
2022/05/11 21:59:29;;;;;;;4.73;3.10;;;;;;;25.44;38.75;100401.75;20462453;28;100501;-79
2022/05/11 22:09:30;;;;;;;4.13;3.00;;;;;;;25.45;38.69;100406.06;20454521;28;97200;-78
2022/05/11 22:19:30;;;;;;;6.17;3.50;;;;;;;25.41;38.99;100400.22;20464387;28;96901;-78
2022/05/11 22:29:31;;;;;;;4.28;3.10;;;;;;;25.36;38.91;100405.06;20452826;28;97743;-79
2022/05/11 22:39:33;;;;;;;4.90;3.40;;;;;;;25.34;39.58;100403.56;20455458;28;97722;-79
2022/05/11 22:49:33;;;;;;;5.50;3.22;;;;;;;25.33;39.66;100413.34;20463356;28;97697;-78
2022/05/11 22:59:34;;;;;;;3.30;2.97;;;;;;;25.35;39.85;100407.88;20464455;28;97172;-78
2022/05/11 23:09:34;;;;;;;5.25;3.50;;;;;;;25.33;39.87;100404.53;20452913;28;97281;-78
2022/05/11 23:19:35;;;;;;;4.20;3.00;;;;;;;25.29;39.78;100401.34;20467699;28;97496;-79
2022/05/11 23:29:36;;;;;;;3.67;3.30;;;;;;;25.28;39.77;100398.84;20464979;28;97007;-79
2022/05/11 23:39:36;;;;;;;4.17;3.03;;;;;;;25.25;39.97;100381.44;20469475;28;96997;-79
2022/05/11 23:49:37;;;;;;;5.10;3.30;;;;;;;25.22;40.18;100374.59;20450638;28;97847;-79
2022/05/11 23:59:39;;;;;;;4.87;3.63;;;;;;;25.17;40.11;100383.97;20456372;28;97267;-79
